Airports Spain Reus Air Base

Reus Air Base (LERS / REU)

Facts about Reus Air Base

Name Reus Air Base
City Reus
Country Spain
ICAO code LERS
IATA code REU
Elevation 71.0184 meters (233 feet)

Weather

METAR

Metar data retrieved Saturday, 20 July 2024 at 00:25 UTC (17 minutes ago)

LERS 200000Z AUTO 01004KT CAVOK 25/22 Q1014

Live traffic

Navigraph Charts (account required)